ORD weather

Chicago O'Hare International Airport
Chicago, Illinois, United States

Public forecast

Using degrees Fahrenheit for public forecast. Weather courtesy of forecast.io.

Current aviation weather report (METAR) for Chicago O'Hare International Airport

Retrieved 2020/01/23 10:07 UTC (30 minutes ago):

KORD 231007Z 17006KT 2 1/2SM -SN BR FEW011 OVC022 M02/M02 A3006 RMK AO2 P0000 T10171022

Aviation forecast (TAF) for Chicago O'Hare International Airport

Retrieved 2020/01/23 06:34 UTC (4 hours ago):

TAF KORD 230532Z 2306/2412 18011G17KT P6SM OVC025 FM230700 18010KT 3SM -SNPL OVC025 FM230900 18008KT 1 1/2SM -SN BR OVC012 FM231200 17009KT 1 1/2SM -SN BR OVC009 FM231600 16008KT 3SM -SN BR OVC006 FM232300 14007KT 1 1/2SM -SNDZ BR OVC006 FM240800 08010KT 1SM -SN BR OVC005